Airport ID:KO69
Update Time (UTC):13/12/2019 11:34
Wind Speed (Knots):1
Wind Direction (Magnetic):280
Temperature (°C):11
Dew Point (°C):11
Humidity (%):100
Altimeter (inHg):30.25
Density Altitude (Feet):
Visibility (Miles):1/2
Clouds (Hundreds of feet):OVC003
Present Weather:FG
METAR:METAR KO69 131130Z AUTO 29003KT 1/2SM FG OVC003 11/11 A3026 RMK A01

The data displayed is for advisory purposes only and is not to be used for flight planning or operations.

This page is not automatically refreshed. Reload the page to see current data.